Raleigh County Memorial Airport Beckley US
ICAO: KBKW
IATA: BKW
Category: Medium
Scheduled Services: Yes

Elevation: 2504 ft
TransAlt. 18000 ft.

Airport Communications:
CHARLESTON APP/DEP:118.95
ASOS:121.55
AWOS 3:124.65
ELKINS RDO:117.7
CTAF/UNICOM:123

KBKW Zoom In..

Runways:

(A) RW 01 length 6750 ft width 150 ft
---- / hdg 13

(B) RW 10 length 5001 ft width 100 ft
---- / hdg 103

(C) RW 19 length 6750 ft width 150 ft
ILS 111.70 / hdg 193

(D) RW 28 length 5001 ft width 100 ft
---- / hdg 283

Location; KBKW
Day. 19 / Time. 19.51 Zulu
* Altimeter: 30.11
* Temperature: 25° c. 77°f.
* Wind from: 160° Speed 10 kn.
Dewpoint: 14° c.
Visibility: 10 Statute Miles.
Clouds: Broken 5000 ft.

KBKW 191951Z AUTO 16010KT 10SM BKN050 25/14 A3011 RMK AO2 SLP171 T02500144 TSNO


Wind From 160°
Speed 10 kn.

 
 
jpsmedia.com for Web Design worldairports.se 2018   terms of use